Air Resources Laboratory banner image
Air Resources Laboratory web site National Oceanic and Atmospheric Administration (NOAA)

ia metar


KADU 102255Z AUTO 00000KT 10SM SCT041 SCT080 31/18 A3017 RMK AO2=
KAIO 102255Z AUTO 29004KT 10SM CLR 31/20 A3013 RMK AO2=
KALO 102254Z 31005KT 10SM CLR 29/17 A3013 RMK AO2 SLP199 T02940172=
KAMW 102253Z AUTO 14004KT 10SM CLR 30/17 A3014 RMK AO2 SLP200 T03000167=
KAWG 102255Z AUTO 03004KT 10SM CLR 29/17 A3013 RMK AO2=
KAXA 102255Z AUTO 19005KT 10SM CLR 29/21 A3015 RMK A01=
KBNW 102255Z AUTO 04005KT 10SM CLR 30/16 A3017 RMK AO2=
KBRL 102253Z AUTO 08005KT 10SM CLR 27/17 A3014 RMK AO2 SLP203 T02720172=
KCAV 102255Z AUTO 00000KT 10SM CLR 29/20 A3016 RMK A01=
KCBF 102255Z AUTO 14006KT 10SM CLR 31/16 A3013 RMK AO2=
KCCY 102255Z AUTO 00000KT 10SM CLR 28/19 A3015 RMK AO2=
KCID 102252Z 10SM CLR 27/17 A3014 RMK AO2 SLP201 T02720172=
KCIN 102255Z AUTO 09004KT 10SM CLR 30/18 A3015 RMK AO2=
KCNC 102255Z AUTO 04005KT 10SM CLR 31/16 A3012 RMK AO2=
KCSQ 102255Z AUTO 03004KT 10SM CLR 32/13 A3014 RMK AO2=
KCWI 102256Z AUTO 28004KT 10SM CLR 27/20 A3014 RMK AO2 SLP206 T02670200=
KDBQ 102253Z 27007KT 10SM CLR 27/19 A3015 RMK AO2 SLP204 T02720189=
KDEH 102255Z AUTO 26004KT 10SM CLR 27/21 A3013 RMK AO2=
KDNS 102255Z AUTO 16005KT 10SM CLR 30/21 A3016 RMK AO2=
KDSM 102254Z 07008KT 10SM CLR 32/13 A3014 RMK AO2 SLP197 T03170128=
KDVN 102252Z AUTO 32004KT 10SM CLR 27/18 A3015 RMK AO2 SLP204 T02720183=
KEBS 102255Z AUTO VRB04KT 10SM CLR 30/20 A3014 RMK AO2=
KEOK 102255Z AUTO VRB04KT 10SM CLR 29/16 A3013 RMK A01=
KEST 102252Z AUTO 16003KT 10SM CLR 29/22 A3016 RMK AO2 SLP206 T02890217=
KFFL 102255Z AUTO 04005KT 10SM CLR 30/13 A3013 RMK A01=
KFOD 102256Z AUTO 07006KT 10SM CLR 30/19 A3016 RMK AO2 SLP220 T03000189=
KFSW 102255Z AUTO 00000KT 10SM OVC001 28/17 A3014 RMK AO2=
KHNR 102255Z AUTO 00000KT 10SM CLR 31/21 A3015 RMK A01=
KICL 102255Z AUTO 00000KT 10SM CLR 31/17 A3015 RMK AO2=
KIKV 102255Z AUTO VRB05KT 10SM CLR 30/16 A3015 RMK AO2=
KIOW 102252Z AUTO 00000KT 10SM CLR 29/15 A3014 RMK AO2 SLP204 T02940150=
KLRJ 102255Z AUTO 14008KT 10SM FEW120 32/20 A3012 RMK AO2=
KMCW 102253Z AUTO 26007KT 10SM CLR 29/19 A3017 RMK AO2 SLP204 T02890189=
KMIW 102253Z AUTO VRB03KT 10SM CLR 30/14 A3014 RMK AO2 SLP202 T03000144=
KMUT 102255Z AUTO 00000KT 10SM CLR 28/17 A3014 RMK AO2=
KOLZ 102255Z AUTO 00000KT 10SM CLR 27/19 A3015 RMK A01=
KOTM 102253Z AUTO 31005KT 10SM CLR 30/14 A3013 RMK AO2 SLP199 T03000144=
KOXV 102255Z AUTO 06006KT 10SM CLR 31/15 A3013 RMK AO2=
KRDK 102255Z AUTO VRB04KT 10SM CLR 32/18 A3014 RMK AO2=
KSDA 102255Z AUTO 14004KT 10SM CLR 31/17 A3012 RMK AO2=
KSHL 102255Z AUTO VRB04KT 10SM CLR 30/22 A3014 RMK AO2=
KSLB 102255Z AUTO 21004KT 10SM CLR 29/21 A3017 RMK AO2=
KSPW 102253Z AUTO 18006KT 10SM FEW043 31/20 A3016 RMK AO2 SLP206 T03110200=
KSUX 102252Z 16007KT 10SM CLR 33/19 A3012 RMK AO2 SLP192 T03330189=
KTNU 102255Z AUTO VRB06KT 10SM CLR 30/14 A3014 RMK A01=